Time;durP1;ratioP1;P1;durP2;ratioP2;P2;SDS_P1;SDS_P2;PMS_P1;PMS_P2;Temp;Humidity;BMP_temperature;BMP_pressure;BME280_temperature;BME280_humidity;BME280_pressure;Samples;Min_cycle;Max_cycle;Signal;HPM_P1;HPM_P2
2021/03/21 00:02:08;;;;;;;6.35;4.20;;;2.70;56.40;;;;;;5045998;28;20104;-89
2021/03/21 00:04:34;;;;;;;7.13;4.00;;;2.70;56.30;;;;;;5065510;28;20028;-89
2021/03/21 00:06:59;;;;;;;7.88;4.10;;;2.70;56.40;;;;;;5047525;28;20021;-89
2021/03/21 00:09:25;;;;;;;4.63;3.70;;;2.70;56.40;;;;;;5050365;28;20024;-88
2021/03/21 00:11:50;;;;;;;6.88;3.70;;;2.70;56.40;;;;;;5045621;28;20036;-89
2021/03/21 00:14:17;;;;;;;5.35;3.92;;;2.70;56.40;;;;;;5052866;28;20401;-89
2021/03/21 00:16:43;;;;;;;7.03;3.95;;;2.70;56.30;;;;;;5053879;28;20033;-89
2021/03/21 00:19:09;;;;;;;4.32;3.55;;;2.70;56.30;;;;;;5048454;28;20450;-88
2021/03/21 00:21:35;;;;;;;5.50;3.80;;;2.70;56.40;;;;;;5053886;28;20108;-89
2021/03/21 00:24:01;;;;;;;3.85;3.25;;;2.70;56.50;;;;;;5049090;28;20031;-89
2021/03/21 00:26:27;;;;;;;4.70;3.50;;;2.70;56.50;;;;;;5071115;28;20059;-89
2021/03/21 00:28:52;;;;;;;4.45;3.25;;;2.80;56.70;;;;;;5053515;28;20052;-88
2021/03/21 00:31:18;;;;;;;8.65;3.70;;;2.80;56.70;;;;;;5053801;28;20028;-88
2021/03/21 00:33:44;;;;;;;5.07;3.70;;;2.90;56.40;;;;;;5037695;28;20544;-89
2021/03/21 00:36:12;;;;;;;5.15;3.13;;;2.90;56.10;;;;;;5053397;28;20363;-88
2021/03/21 00:38:44;;;;;;;5.72;4.15;;;2.90;56.10;;;;;;5050700;28;20545;-87
2021/03/21 00:41:12;;;;;;;5.28;3.30;;;2.90;56.00;;;;;;5049789;28;20027;-87
2021/03/21 00:43:38;;;;;;;5.93;3.70;;;2.90;56.00;;;;;;5053143;28;20062;-89
2021/03/21 00:46:05;;;;;;;4.68;3.42;;;2.90;56.00;;;;;;5053107;28;20107;-89
2021/03/21 00:48:33;;;;;;;5.57;3.17;;;2.90;55.90;;;;;;5053373;28;20031;-88
2021/03/21 00:50:59;;;;;;;3.83;3.10;;;2.90;56.00;;;;;;5053304;28;20642;-89
2021/03/21 00:53:25;;;;;;;4.10;3.20;;;2.90;56.10;;;;;;5052962;28;20127;-89
2021/03/21 00:55:51;;;;;;;5.30;3.22;;;2.90;56.30;;;;;;5052207;28;20063;-88
2021/03/21 00:58:18;;;;;;;5.85;3.45;;;2.90;56.30;;;;;;5053044;28;20431;-88
2021/03/21 01:00:50;;;;;;;6.75;3.80;;;3.00;56.20;;;;;;5053343;28;20043;-88
2021/03/21 01:03:17;;;;;;;4.35;3.58;;;3.00;55.90;;;;;;5060227;28;20028;-89
2021/03/21 01:05:49;;;;;;;4.53;3.47;;;3.00;56.00;;;;;;5038762;28;20029;-89
2021/03/21 01:08:32;;;;;;;6.35;3.65;;;2.90;56.00;;;;;;5063528;28;20053;-88
2021/03/21 01:10:59;;;;;;;;;;;2.90;55.90;;;;;;5049896;28;20032;-89
2021/03/21 01:13:25;;;;;;;4.53;3.63;;;3.00;56.10;;;;;;5075147;28;19939;-88
2021/03/21 01:15:51;;;;;;;3.75;3.42;;;2.90;56.00;;;;;;5074327;28;20466;-88
2021/03/21 01:18:19;;;;;;;6.15;3.28;;;2.90;55.90;;;;;;5056503;28;20071;-88
2021/03/21 01:20:45;;;;;;;5.20;3.65;;;2.90;55.80;;;;;;5052829;28;20086;-89
2021/03/21 01:23:11;;;;;;;5.43;3.22;;;2.80;55.80;;;;;;5056294;28;20038;-88
2021/03/21 01:25:37;;;;;;;5.88;3.50;;;2.80;55.90;;;;;;5074454;28;20028;-89
2021/03/21 01:28:03;;;;;;;5.65;3.60;;;2.80;55.60;;;;;;5056571;28;20413;-88
2021/03/21 01:30:29;;;;;;;4.75;3.35;;;2.80;55.20;;;;;;5051163;28;20079;-88
2021/03/21 01:32:55;;;;;;;6.03;3.35;;;2.70;54.70;;;;;;5056110;28;20028;-88
2021/03/21 01:35:21;;;;;;;4.60;2.97;;;2.70;54.80;;;;;;5051961;28;20033;-89
2021/03/21 01:37:48;;;;;;;6.68;2.90;;;2.70;55.00;;;;;;5074045;28;20051;-89
2021/03/21 01:40:18;;;;;;;4.57;2.90;;;2.70;55.20;;;;;;5050195;28;20032;-89
2021/03/21 01:42:46;;;;;;;3.05;2.50;;;2.70;55.00;;;;;;5052790;28;20024;-89
2021/03/21 01:45:28;;;;;;;5.00;3.00;;;2.70;54.70;;;;;;5065362;28;20024;-88
2021/03/21 01:47:55;;;;;;;3.15;2.63;;;2.60;54.70;;;;;;5074038;28;20040;-89
2021/03/21 01:50:30;;;;;;;4.95;2.90;;;2.60;54.70;;;;;;5052811;28;20043;-88
2021/03/21 01:52:56;;;;;;;3.65;2.72;;;2.60;54.70;;;;;;5070501;28;20390;-89
2021/03/21 01:55:23;;;;;;;4.75;3.30;;;2.60;54.50;;;;;;5051478;28;20035;-88
2021/03/21 01:57:51;;;;;;;5.32;3.03;;;2.60;54.80;;;;;;5056102;28;20021;-90
2021/03/21 02:00:18;;;;;;;5.05;3.25;;;2.60;54.70;;;;;;5053618;28;20028;-89
2021/03/21 02:02:44;;;;;;;3.55;2.95;;;2.60;55.00;;;;;;5064852;28;20021;-89
2021/03/21 02:05:10;;;;;;;5.72;3.13;;;2.70;54.80;;;;;;5048846;28;20036;-88
2021/03/21 02:07:49;;;;;;;3.90;3.15;;;2.70;54.80;;;;;;5050586;28;20111;-88
2021/03/21 02:10:33;;;;;;;5.18;3.40;;;2.70;54.70;;;;;;5052915;28;20021;-88
2021/03/21 02:13:11;;;;;;;3.85;2.85;;;2.70;54.40;;;;;;5055551;28;20035;-88
2021/03/21 02:15:46;;;;;;;4.95;3.28;;;2.70;54.50;;;;;;5054059;28;20036;-89
2021/03/21 02:18:38;;;;;;;4.68;3.22;;;2.70;54.30;;;;;;5056111;28;20123;-89
2021/03/21 02:21:31;;;;;;;6.35;3.38;;;2.60;54.30;;;;;;5024592;28;20036;-89
2021/03/21 02:24:26;;;;;;;5.68;3.17;;;2.70;54.20;;;;;;5050374;28;20051;-88
2021/03/21 02:27:03;;;;;;;9.05;3.17;;;2.60;54.20;;;;;;5049506;28;20050;-88
2021/03/21 02:29:40;;;;;;;4.43;3.22;;;2.60;54.20;;;;;;5045144;28;20040;-88
2021/03/21 02:32:15;;;;;;;4.13;3.05;;;2.60;54.20;;;;;;5053908;28;20032;-89
2021/03/21 02:35:04;;;;;;;3.42;2.90;;;2.60;54.40;;;;;;5055261;28;20123;-89
2021/03/21 02:37:44;;;;;;;8.57;3.20;;;2.70;54.30;;;;;;5064490;28;20063;-88
2021/03/21 02:40:31;;;;;;;5.85;3.20;;;2.70;54.40;;;;;;5069560;28;20029;-87
2021/03/21 02:43:06;;;;;;;4.38;2.83;;;2.70;54.30;;;;;;5054602;28;20108;-89
2021/03/21 02:45:35;;;;;;;3.78;3.00;;;2.70;54.20;;;;;;5040437;28;20025;-89
2021/03/21 02:48:10;;;;;;;4.78;3.60;;;2.70;54.30;;;;;;5051091;28;20090;-88
2021/03/21 02:50:42;;;;;;;3.97;3.00;;;2.70;54.10;;;;;;5048084;28;20032;-88
2021/03/21 02:53:21;;;;;;;5.43;3.22;;;2.70;54.00;;;;;;5058679;28;20047;-88
2021/03/21 02:55:50;;;;;;;8.80;4.68;;;2.70;54.20;;;;;;5052160;28;20035;-88
2021/03/21 02:58:25;;;;;;;7.75;3.88;;;2.70;54.00;;;;;;5047189;28;20024;-89
2021/03/21 03:01:14;;;;;;;4.70;3.33;;;2.70;54.10;;;;;;5050030;28;20032;-88
2021/03/21 03:03:46;;;;;;;6.53;3.85;;;2.70;54.20;;;;;;5055280;28;20641;-88
2021/03/21 03:06:16;;;;;;;3.60;2.83;;;2.70;54.50;;;;;;5046236;28;20051;-88
2021/03/21 03:08:49;;;;;;;4.78;3.13;;;2.70;54.20;;;;;;5050946;28;20107;-89
2021/03/21 03:11:20;;;;;;;5.53;3.10;;;2.70;54.20;;;;;;5066309;28;20107;-89
2021/03/21 03:13:50;;;;;;;5.13;2.97;;;2.70;54.30;;;;;;5053894;28;20492;-88
2021/03/21 03:16:44;;;;;;;4.32;2.90;;;2.70;54.20;;;;;;5071458;28;20036;-89
2021/03/21 03:19:27;;;;;;;3.80;2.83;;;2.70;54.30;;;;;;5053293;28;20028;-88
2021/03/21 03:21:59;;;;;;;6.20;3.50;;;2.70;54.20;;;;;;5058361;28;20029;-88
2021/03/21 03:25:02;;;;;;;6.03;3.28;;;2.70;54.10;;;;;;5051974;28;20410;-88
2021/03/21 03:27:52;;;;;;;6.50;3.80;;;2.70;54.30;;;;;;5052266;28;20040;-88
2021/03/21 03:30:22;;;;;;;4.32;3.08;;;2.70;54.20;;;;;;5042917;28;20028;-88
2021/03/21 03:32:48;;;;;;;9.30;3.78;;;2.70;54.30;;;;;;5070269;28;20060;-88
2021/03/21 03:35:16;;;;;;;4.28;2.92;;;2.70;54.40;;;;;;5053913;28;20397;-88
2021/03/21 03:37:42;;;;;;;4.57;3.33;;;2.70;54.40;;;;;;5051269;28;20025;-88
2021/03/21 03:40:10;;;;;;;7.90;4.63;;;2.70;54.30;;;;;;5051074;28;20382;-89
2021/03/21 03:43:03;;;;;;;13.15;5.35;;;2.70;54.40;;;;;;5051044;28;20435;-88
2021/03/21 03:46:01;;;;;;;6.40;3.50;;;2.70;54.10;;;;;;5053151;28;20028;-88
2021/03/21 03:48:48;;;;;;;6.10;3.30;;;2.70;53.70;;;;;;5021777;28;20041;-89
2021/03/21 03:51:34;;;;;;;6.38;3.45;;;2.70;53.90;;;;;;5048639;28;20025;-88
2021/03/21 03:54:27;;;;;;;8.77;3.90;;;2.70;53.90;;;;;;5065081;28;20103;-89
2021/03/21 03:57:12;;;;;;;10.77;4.50;;;2.70;53.90;;;;;;5047356;28;20026;-89
2021/03/21 03:59:45;;;;;;;5.95;3.22;;;2.70;54.10;;;;;;5053023;28;20379;-89
2021/03/21 04:02:18;;;;;;;12.65;5.78;;;2.70;54.00;;;;;;5053648;28;20044;-88
2021/03/21 04:04:55;;;;;;;5.10;3.13;;;2.70;53.70;;;;;;5053326;28;20025;-89
2021/03/21 04:07:35;;;;;;;5.25;3.05;;;2.70;53.80;;;;;;5049835;28;20033;-88
2021/03/21 04:10:15;;;;;;;7.72;3.28;;;2.60;54.20;;;;;;5046719;28;20033;-88
2021/03/21 04:13:22;;;;;;;6.07;3.30;;;2.70;54.30;;;;;;5071650;28;20029;-87
2021/03/21 04:15:52;;;;;;;10.88;4.25;;;2.70;54.40;;;;;;5026271;28;20033;-89
2021/03/21 04:19:12;;;;;;;5.60;3.22;;;2.70;54.40;;;;;;5071455;28;20025;-89
2021/03/21 04:21:46;;;;;;;4.47;2.90;;;2.70;54.60;;;;;;4974362;28;20034;-89
2021/03/21 04:24:36;;;;;;;5.45;3.30;;;2.70;54.70;;;;;;5049343;28;20459;-89
2021/03/21 04:27:12;;;;;;;2.97;2.65;;;2.70;55.20;;;;;;5065713;28;20028;-88
2021/03/21 04:30:02;;;;;;;4.50;3.13;;;2.70;54.80;;;;;;5049837;28;20021;-88
2021/03/21 04:32:39;;;;;;;3.65;2.80;;;2.70;54.90;;;;;;5055812;28;20033;-89
2021/03/21 04:35:13;;;;;;;5.38;3.53;;;2.70;55.00;;;;;;5044613;28;20029;-89
2021/03/21 04:41:05;;;;;;;5.97;3.45;;;2.80;55.20;;;;;;5065973;28;20501;-87
2021/03/21 04:43:43;;;;;;;6.57;3.35;;;2.80;55.10;;;;;;5043216;28;21213;-88
2021/03/21 04:46:13;;;;;;;4.00;3.30;;;2.80;55.20;;;;;;5063523;28;20025;-88
2021/03/21 04:48:39;;;;;;;6.25;3.65;;;2.80;55.20;;;;;;5050496;28;20029;-88
2021/03/21 04:51:11;;;;;;;5.28;2.92;;;2.80;55.40;;;;;;5055472;28;20025;-89
2021/03/21 04:53:58;;;;;;;6.03;3.47;;;2.80;55.50;;;;;;5052943;28;20107;-89
2021/03/21 04:56:30;;;;;;;5.20;2.92;;;2.80;55.50;;;;;;5047725;28;20126;-89
2021/03/21 04:59:09;;;;;;;7.82;3.05;;;2.80;55.50;;;;;;5051879;28;20077;-89
2021/03/21 05:01:42;;;;;;;6.15;3.00;;;2.80;55.40;;;;;;5056250;28;20020;-89
2021/03/21 05:04:33;;;;;;;9.98;3.97;;;2.90;55.40;;;;;;5051197;28;20028;-88
2021/03/21 05:07:18;;;;;;;42.63;17.15;;;2.90;55.20;;;;;;5051494;28;20021;-88
2021/03/21 05:09:47;;;;;;;8.35;4.10;;;2.90;55.10;;;;;;5053098;28;20059;-88
2021/03/21 05:12:41;;;;;;;4.97;3.05;;;2.90;55.10;;;;;;5055990;28;20056;-88
2021/03/21 05:15:11;;;;;;;5.82;3.60;;;2.90;55.10;;;;;;5055456;28;20032;-88
2021/03/21 05:17:58;;;;;;;5.65;3.40;;;2.90;55.20;;;;;;5056471;28;20082;-88
2021/03/21 05:20:36;;;;;;;10.95;4.32;;;2.90;55.30;;;;;;5054994;28;20035;-88
2021/03/21 05:23:24;;;;;;;10.02;5.15;;;2.90;55.20;;;;;;5056639;28;20131;-88
2021/03/21 05:26:01;;;;;;;5.75;3.60;;;2.90;55.20;;;;;;5065730;28;20039;-88
2021/03/21 05:28:56;;;;;;;6.72;3.97;;;3.00;55.20;;;;;;5049717;28;20497;-88
2021/03/21 05:31:23;;;;;;;7.18;4.13;;;2.90;55.10;;;;;;5041789;28;20024;-88
2021/03/21 05:33:49;;;;;;;4.32;2.90;;;3.00;55.10;;;;;;5058161;28;20040;-87
2021/03/21 05:36:46;;;;;;;5.40;3.33;;;2.90;55.30;;;;;;5054269;28;20025;-89
2021/03/21 05:39:42;;;;;;;8.63;3.88;;;3.00;55.30;;;;;;5052677;28;20029;-88
2021/03/21 05:42:22;;;;;;;4.32;3.08;;;3.00;55.30;;;;;;5049708;28;20032;-89
2021/03/21 05:45:32;;;;;;;5.53;3.33;;;3.00;55.40;;;;;;5042799;28;20597;-88
2021/03/21 05:48:05;;;;;;;11.88;5.47;;;3.00;55.30;;;;;;5069599;28;20064;-88
2021/03/21 05:50:46;;;;;;;6.53;3.90;;;3.00;55.00;;;;;;5055570;28;20047;-89
2021/03/21 05:53:39;;;;;;;5.10;3.30;;;3.00;55.10;;;;;;5083403;28;20115;-87
2021/03/21 05:56:16;;;;;;;2.92;2.47;;;3.00;55.20;;;;;;5045856;28;20028;-88
2021/03/21 05:59:16;;;;;;;5.18;2.83;;;3.00;55.30;;;;;;5054823;28;20509;-88
2021/03/21 06:02:05;;;;;;;8.68;4.85;;;3.00;55.30;;;;;;5048507;28;20063;-88
2021/03/21 06:05:04;;;;;;;3.42;2.30;;;3.00;55.20;;;;;;5066192;28;20124;-88
2021/03/21 06:07:38;;;;;;;3.83;2.80;;;3.00;54.90;;;;;;5054055;28;20028;-88
2021/03/21 06:10:22;;;;;;;4.10;2.60;;;3.00;54.90;;;;;;5054998;28;20016;-87
2021/03/21 06:13:05;;;;;;;5.00;2.53;;;3.00;54.90;;;;;;5055399;28;20095;-88
2021/03/21 06:15:49;;;;;;;2.95;2.40;;;3.00;54.90;;;;;;5055014;28;20028;-88
2021/03/21 06:18:14;;;;;;;3.90;2.42;;;3.00;54.60;;;;;;5072341;28;20212;-88
2021/03/21 06:21:01;;;;;;;3.80;3.30;;;3.00;54.80;;;;;;5055453;28;20032;-89
2021/03/21 06:24:02;;;;;;;5.82;2.50;;;3.00;54.50;;;;;;5054791;28;20029;-88
2021/03/21 06:26:42;;;;;;;3.45;2.35;;;3.00;54.70;;;;;;4975219;28;20066;-88
2021/03/21 06:29:26;;;;;;;4.15;2.88;;;3.00;54.70;;;;;;5045086;28;20071;-89
2021/03/21 06:32:06;;;;;;;3.03;2.40;;;3.00;54.60;;;;;;5055296;28;20034;-89
2021/03/21 06:35:10;;;;;;;6.90;3.10;;;3.10;54.80;;;;;;5054595;28;20070;-89
2021/03/21 06:37:47;;;;;;;4.40;2.50;;;3.10;54.80;;;;;;5066841;28;20025;-89
2021/03/21 06:40:24;;;;;;;5.00;2.60;;;3.10;54.70;;;;;;5055392;28;20119;-89
2021/03/21 06:43:04;;;;;;;5.30;2.65;;;3.10;54.70;;;;;;5055146;28;20097;-88
2021/03/21 06:46:01;;;;;;;3.92;2.30;;;3.10;54.70;;;;;;5054023;28;20032;-89
2021/03/21 06:48:58;;;;;;;2.88;2.20;;;3.20;54.60;;;;;;5071372;28;20028;-90
2021/03/21 06:51:49;;;;;;;3.45;2.20;;;3.20;54.60;;;;;;5054539;28;20490;-88
2021/03/21 06:54:33;;;;;;;3.95;2.00;;;3.20;54.80;;;;;;5054843;28;20032;-88
2021/03/21 06:57:28;;;;;;;4.50;2.38;;;3.20;54.70;;;;;;5050521;28;20506;-89
2021/03/21 07:00:02;;;;;;;4.60;2.58;;;3.30;54.70;;;;;;5051447;28;20036;-88
2021/03/21 07:03:05;;;;;;;3.28;2.40;;;3.30;54.60;;;;;;5047038;28;20386;-89
2021/03/21 07:05:55;;;;;;;3.00;2.08;;;3.30;54.60;;;;;;5050939;28;20054;-88
2021/03/21 07:08:48;;;;;;;2.80;2.08;;;3.30;54.80;;;;;;5071561;28;20031;-88
2021/03/21 07:11:32;;;;;;;3.83;2.90;;;3.30;54.50;;;;;;5045174;28;20280;-89
2021/03/21 07:14:19;;;;;;;2.53;2.10;;;3.30;54.40;;;;;;5054482;28;20166;-89
2021/03/21 07:17:10;;;;;;;4.40;2.38;;;3.30;54.70;;;;;;5054100;28;20142;-88
2021/03/21 07:20:00;;;;;;;4.22;2.10;;;3.30;54.90;;;;;;5054015;28;20036;-89
2021/03/21 07:22:49;;;;;;;4.25;2.17;;;3.30;54.70;;;;;;5072324;28;20024;-88
2021/03/21 07:25:42;;;;;;;4.50;2.40;;;3.40;54.80;;;;;;5070955;28;20425;-88
2021/03/21 07:28:24;;;;;;;3.90;2.15;;;3.30;54.90;;;;;;5043182;28;20166;-89
2021/03/21 07:31:24;;;;;;;3.15;2.20;;;3.40;55.00;;;;;;5042643;28;20025;-89
2021/03/21 07:34:02;;;;;;;11.63;6.70;;;3.40;54.80;;;;;;5051091;28;20029;-88
2021/03/21 07:36:51;;;;;;;10.95;5.70;;;3.50;54.70;;;;;;5047264;28;20028;-90
2021/03/21 07:39:35;;;;;;;8.23;4.70;;;3.50;54.60;;;;;;5042703;28;20490;-89
2021/03/21 07:42:08;;;;;;;14.48;6.30;;;3.60;54.80;;;;;;5067818;28;20033;-88
2021/03/21 07:44:39;;;;;;;3.10;2.30;;;3.70;54.50;;;;;;5053721;28;20466;-88
2021/03/21 07:47:08;;;;;;;5.45;2.47;;;3.70;54.10;;;;;;5078777;28;20050;-88
2021/03/21 07:49:57;;;;;;;6.55;3.42;;;3.70;54.00;;;;;;5054079;28;20067;-88
2021/03/21 07:52:47;;;;;;;9.77;6.85;;;3.70;53.80;;;;;;5052547;28;20037;-88
2021/03/21 07:55:31;;;;;;;3.42;2.38;;;3.70;53.80;;;;;;5051336;28;20046;-88
2021/03/21 07:58:22;;;;;;;6.78;2.60;;;3.70;53.70;;;;;;5050626;28;20079;-88
2021/03/21 08:00:49;;;;;;;4.18;3.03;;;3.70;53.80;;;;;;5075060;28;20031;-88
2021/03/21 08:03:19;;;;;;;3.85;2.22;;;3.80;53.60;;;;;;5055674;28;20048;-88
2021/03/21 08:05:45;;;;;;;4.10;2.53;;;3.80;54.00;;;;;;5051512;28;20082;-87
2021/03/21 08:08:14;;;;;;;6.50;3.00;;;3.80;53.80;;;;;;5054084;28;20475;-88
2021/03/21 08:10:41;;;;;;;4.47;3.00;;;3.90;53.70;;;;;;5049950;28;20471;-87
2021/03/21 08:13:29;;;;;;;3.67;2.63;;;3.90;53.90;;;;;;5053735;28;20090;-88
2021/03/21 08:15:55;;;;;;;5.15;2.78;;;4.00;53.80;;;;;;5052945;28;20038;-87
2021/03/21 08:18:27;;;;;;;7.28;3.10;;;4.00;53.80;;;;;;5053145;28;20123;-87
2021/03/21 08:21:02;;;;;;;5.60;3.40;;;4.10;53.90;;;;;;5052641;28;20024;-87
2021/03/21 08:23:37;;;;;;;4.38;3.15;;;4.10;54.00;;;;;;5057402;28;20036;-87
2021/03/21 08:26:09;;;;;;;6.05;3.00;;;4.00;54.00;;;;;;5056292;28;20039;-87
2021/03/21 08:29:01;;;;;;;7.88;4.18;;;4.00;54.00;;;;;;5054024;28;20017;-87
2021/03/21 08:31:34;;;;;;;6.75;4.28;;;4.00;54.00;;;;;;5055677;28;20024;-87
2021/03/21 08:34:26;;;;;;;6.20;3.55;;;4.00;54.00;;;;;;5056055;28;20056;-88
2021/03/21 08:36:52;;;;;;;8.02;4.05;;;4.00;54.10;;;;;;5057272;28;20089;-88
2021/03/21 08:39:42;;;;;;;7.47;4.25;;;4.00;54.40;;;;;;5057168;28;20060;-88
2021/03/21 08:42:28;;;;;;;6.00;4.15;;;4.00;54.80;;;;;;5057356;28;20055;-89
2021/03/21 08:45:03;;;;;;;6.68;4.00;;;4.10;54.90;;;;;;5067776;28;20078;-89
2021/03/21 08:47:29;;;;;;;6.22;4.18;;;4.10;54.90;;;;;;5055535;28;20016;-90
2021/03/21 08:49:57;;;;;;;8.65;4.72;;;4.20;55.00;;;;;;5057033;28;20035;-88
2021/03/21 08:52:45;;;;;;;7.07;4.65;;;4.30;55.10;;;;;;5056850;28;20020;-88
2021/03/21 08:55:34;;;;;;;11.80;6.75;;;4.30;55.30;;;;;;5047386;28;20483;-90
2021/03/21 08:58:24;;;;;;;9.48;5.15;;;4.40;55.40;;;;;;5052939;28;20039;-89
2021/03/21 09:00:50;;;;;;;8.50;4.90;;;4.40;55.40;;;;;;5056490;28;20245;-90
2021/03/21 09:03:29;;;;;;;9.40;5.15;;;4.40;55.30;;;;;;5054066;28;20550;-88
2021/03/21 09:05:57;;;;;;;7.85;4.65;;;4.40;55.40;;;;;;5045102;28;20020;-90
2021/03/21 09:08:25;;;;;;;11.10;5.75;;;4.50;55.60;;;;;;5057707;28;20028;-90
2021/03/21 09:10:54;;;;;;;6.20;4.68;;;4.50;55.60;;;;;;5053448;28;20036;-91
2021/03/21 09:13:26;;;;;;;10.15;5.30;;;4.50;55.60;;;;;;5057182;28;20024;-90
2021/03/21 09:15:54;;;;;;;8.00;5.10;;;4.60;55.60;;;;;;5051792;28;20059;-90
2021/03/21 09:18:28;;;;;;;6.50;4.63;;;4.70;55.30;;;;;;5074903;28;20048;-90
2021/03/21 09:20:58;;;;;;;9.15;4.70;;;4.70;55.20;;;;;;5075952;28;20032;-91
2021/03/21 09:23:43;;;;;;;7.22;5.00;;;4.70;55.40;;;;;;5058386;28;20048;-89
2021/03/21 09:26:12;;;;;;;6.93;4.50;;;4.70;55.20;;;;;;5050499;28;20021;-89
2021/03/21 09:28:40;;;;;;;7.07;4.97;;;4.70;55.30;;;;;;5055959;28;20028;-89
2021/03/21 09:31:11;;;;;;;10.82;5.35;;;4.70;55.30;;;;;;5050819;28;20017;-88
2021/03/21 09:33:46;;;;;;;9.88;5.47;;;4.80;55.60;;;;;;5054771;28;20479;-88
2021/03/21 09:36:26;;;;;;;8.43;5.45;;;4.70;55.70;;;;;;5055527;28;20021;-89
2021/03/21 09:39:26;;;;;;;8.68;5.53;;;4.70;56.00;;;;;;5067631;28;20025;-87
2021/03/21 09:41:54;;;;;;;6.93;4.82;;;4.70;56.30;;;;;;5036214;28;20403;-89
2021/03/21 09:44:27;;;;;;;8.55;5.60;;;4.70;56.20;;;;;;5037052;28;20028;-89
2021/03/21 09:47:30;;;;;;;8.18;5.00;;;4.70;55.90;;;;;;5042934;28;20028;-88
2021/03/21 09:50:05;;;;;;;7.28;5.10;;;4.70;56.20;;;;;;5052887;28;20086;-89
2021/03/21 09:52:50;;;;;;;8.80;5.00;;;4.70;56.20;;;;;;5056307;28;20043;-88
2021/03/21 09:55:37;;;;;;;9.68;6.57;;;4.70;56.60;;;;;;5055952;28;20028;-88
2021/03/21 09:58:17;;;;;;;7.68;5.50;;;4.70;56.60;;;;;;5056179;28;20027;-88
2021/03/21 10:00:53;;;;;;;13.93;7.78;;;4.80;56.80;;;;;;5056013;28;20052;-89
2021/03/21 10:03:25;;;;;;;8.90;6.25;;;4.80;56.70;;;;;;5044082;28;20057;-88
2021/03/21 10:06:16;;;;;;;9.70;4.85;;;4.80;56.60;;;;;;5048093;28;20017;-88
2021/03/21 10:09:03;;;;;;;21.55;10.10;;;4.90;56.70;;;;;;5041178;28;20017;-88
2021/03/21 10:11:32;;;;;;;15.80;8.93;;;4.90;56.50;;;;;;5073568;28;20044;-90
2021/03/21 10:14:02;;;;;;;8.23;5.43;;;4.90;56.70;;;;;;5054352;28;20029;-91
2021/03/21 10:16:32;;;;;;;15.52;10.25;;;4.90;56.70;;;;;;5037089;28;20040;-87
2021/03/21 10:19:00;;;;;;;7.35;5.63;;;4.90;56.60;;;;;;5048415;28;20016;-89
2021/03/21 10:21:32;;;;;;;8.25;5.80;;;4.90;56.50;;;;;;5070149;28;20024;-89
2021/03/21 10:24:05;;;;;;;7.70;5.00;;;4.90;56.70;;;;;;5055544;28;20027;-89
2021/03/21 10:26:31;;;;;;;;;;;4.90;57.10;;;;;;5055952;28;20067;-89
2021/03/21 10:28:59;;;;;;;7.68;4.30;;;4.90;57.00;;;;;;5056350;28;19905;-88
2021/03/21 10:31:34;;;;;;;10.30;5.90;;;4.90;57.30;;;;;;5054579;28;20032;-89
2021/03/21 10:36:37;;;;;;;8.20;4.63;;;5.00;57.50;;;;;;5017417;28;20045;-68
2021/03/21 10:39:24;;;;;;;8.77;4.38;;;5.00;57.50;;;;;;5010003;28;20030;-68
2021/03/21 10:42:02;;;;;;;7.85;4.88;;;5.00;57.50;;;;;;5024495;28;20080;-68
2021/03/21 10:44:50;;;;;;;8.40;5.32;;;5.10;57.40;;;;;;5008868;28;20017;-68
2021/03/21 10:47:22;;;;;;;10.70;7.32;;;5.10;57.60;;;;;;5005267;28;20040;-69
2021/03/21 10:50:00;;;;;;;7.28;4.80;;;5.10;57.50;;;;;;5007504;28;20095;-71
2021/03/21 10:52:37;;;;;;;7.15;4.45;;;5.20;57.60;;;;;;5006872;28;20038;-68
2021/03/21 10:55:12;;;;;;;7.25;4.38;;;5.20;57.70;;;;;;5043687;23;20033;-68
2021/03/21 10:57:49;;;;;;;9.23;5.50;;;5.20;57.70;;;;;;5051327;28;20048;-69
2021/03/21 11:00:31;;;;;;;7.18;4.30;;;5.30;57.80;;;;;;5030494;28;20025;-68
2021/03/21 11:03:00;;;;;;;6.32;3.83;;;5.30;57.90;;;;;;5018469;28;20116;-68
2021/03/21 11:05:31;;;;;;;7.68;4.03;;;5.40;58.10;;;;;;5022314;28;20488;-68
2021/03/21 11:08:27;;;;;;;6.75;4.20;;;5.40;58.20;;;;;;5032684;28;20059;-68
2021/03/21 11:10:56;;;;;;;7.05;5.00;;;5.50;58.20;;;;;;5024882;28;20041;-68
2021/03/21 11:13:29;;;;;;;7.03;4.70;;;5.50;58.30;;;;;;5032369;28;20025;-68
2021/03/21 11:15:56;;;;;;;7.32;4.45;;;5.50;58.40;;;;;;5032965;28;20031;-68
2021/03/21 11:18:27;;;;;;;9.32;4.65;;;5.50;58.60;;;;;;5033353;28;20433;-68
2021/03/21 11:21:19;;;;;;;8.35;5.07;;;5.50;59.00;;;;;;5033889;28;20039;-68
2021/03/21 11:23:48;;;;;;;8.93;5.38;;;5.50;59.20;;;;;;5033829;28;20025;-69
2021/03/21 11:26:24;;;;;;;7.95;4.82;;;5.60;59.10;;;;;;5033473;28;20082;-68
2021/03/21 11:28:54;;;;;;;7.45;4.72;;;5.60;59.40;;;;;;5033177;28;20092;-67
2021/03/21 11:31:31;;;;;;;6.15;4.53;;;5.60;59.40;;;;;;5066802;28;20043;-67
2021/03/21 11:33:57;;;;;;;6.82;4.80;;;5.50;59.70;;;;;;5032953;28;20384;-68
2021/03/21 11:36:27;;;;;;;14.07;6.97;;;5.50;59.90;;;;;;5024221;28;20021;-68
2021/03/21 11:38:54;;;;;;;11.65;6.03;;;5.50;60.20;;;;;;5014007;28;20409;-68
2021/03/21 11:41:26;;;;;;;18.50;8.25;;;5.40;60.60;;;;;;5015648;28;20038;-68
2021/03/21 11:43:52;;;;;;;15.82;7.40;;;5.40;60.90;;;;;;5032852;28;20024;-68
2021/03/21 11:46:31;;;;;;;9.88;5.05;;;5.40;60.80;;;;;;5033425;28;20087;-68
2021/03/21 11:48:58;;;;;;;8.05;5.25;;;5.40;61.40;;;;;;5033482;28;20033;-68
2021/03/21 11:51:26;;;;;;;7.97;5.03;;;5.50;61.70;;;;;;5033136;28;20033;-68
2021/03/21 11:53:52;;;;;;;6.72;4.65;;;5.40;61.90;;;;;;5033035;28;20120;-69
2021/03/21 11:56:18;;;;;;;10.45;6.20;;;5.40;61.90;;;;;;5033852;28;20087;-68
2021/03/21 11:58:49;;;;;;;7.53;5.45;;;5.40;62.50;;;;;;5033463;28;20025;-69
2021/03/21 12:01:35;;;;;;;10.30;4.95;;;5.50;62.40;;;;;;5033770;28;20063;-69
2021/03/21 12:04:03;;;;;;;9.32;5.88;;;5.50;62.50;;;;;;5031803;28;20104;-69
2021/03/21 12:06:41;;;;;;;6.10;5.15;;;5.50;62.60;;;;;;5033110;28;20027;-69
2021/03/21 12:09:31;;;;;;;8.48;5.20;;;5.50;62.70;;;;;;5033630;28;20135;-69
2021/03/21 12:12:01;;;;;;;6.82;4.63;;;5.60;62.70;;;;;;5032966;28;20021;-69
2021/03/21 12:14:33;;;;;;;8.50;5.10;;;5.60;62.50;;;;;;5032454;28;20025;-69
2021/03/21 12:17:24;;;;;;;9.40;4.85;;;5.70;62.60;;;;;;5033274;28;20032;-68
2021/03/21 12:19:52;;;;;;;8.43;5.00;;;5.60;62.70;;;;;;5033163;28;20024;-68
2021/03/21 12:22:37;;;;;;;12.05;8.27;;;5.60;62.90;;;;;;5025012;28;20048;-68
2021/03/21 12:25:24;;;;;;;8.20;6.05;;;5.60;63.00;;;;;;5032347;28;20032;-68
2021/03/21 12:27:54;;;;;;;18.10;8.93;;;5.60;63.30;;;;;;5032151;28;20013;-68
2021/03/21 12:30:42;;;;;;;6.85;5.15;;;5.60;63.40;;;;;;5033260;28;20063;-68
2021/03/21 12:33:42;;;;;;;8.07;5.07;;;5.60;63.40;;;;;;5033000;28;20025;-68
2021/03/21 12:36:08;;;;;;;8.82;5.93;;;5.60;63.60;;;;;;5027541;28;20060;-68
2021/03/21 12:38:44;;;;;;;10.05;5.50;;;5.70;64.20;;;;;;5032848;28;20511;-69
2021/03/21 12:41:28;;;;;;;8.23;5.95;;;5.70;64.30;;;;;;5033813;28;20499;-67
2021/03/21 12:44:34;;;;;;;11.48;8.40;;;5.70;64.20;;;;;;5031712;28;20079;-68
2021/03/21 12:47:16;;;;;;;8.60;6.95;;;5.80;64.40;;;;;;5052055;28;20366;-68
2021/03/21 12:49:46;;;;;;;7.30;5.93;;;5.90;64.30;;;;;;5033311;28;20029;-69
2021/03/21 12:52:42;;;;;;;10.88;5.82;;;5.90;64.30;;;;;;5032871;28;20412;-68
2021/03/21 12:55:09;;;;;;;7.68;4.95;;;6.00;64.20;;;;;;5032098;28;20083;-68
2021/03/21 12:57:34;;;;;;;6.68;5.45;;;6.00;64.00;;;;;;5032834;28;20029;-68
2021/03/21 13:00:00;;;;;;;7.35;5.18;;;6.10;64.20;;;;;;5032402;28;20032;-68
2021/03/21 13:02:34;;;;;;;8.43;5.78;;;6.10;64.30;;;;;;5032744;28;20036;-68
2021/03/21 13:05:03;;;;;;;9.77;6.35;;;6.10;64.60;;;;;;5028474;28;20376;-68
2021/03/21 13:07:29;;;;;;;8.40;6.85;;;6.10;65.00;;;;;;5025284;28;20025;-68
2021/03/21 13:09:57;;;;;;;9.25;6.65;;;6.10;65.30;;;;;;5054405;28;20132;-68
2021/03/21 13:12:23;;;;;;;12.52;7.78;;;6.00;65.30;;;;;;5036599;28;20416;-68
2021/03/21 13:14:51;;;;;;;11.15;7.43;;;6.00;65.90;;;;;;5035054;28;20515;-68
2021/03/21 13:17:18;;;;;;;10.02;7.38;;;6.00;66.10;;;;;;5036338;28;20095;-68
2021/03/21 13:19:44;;;;;;;11.88;6.90;;;5.90;66.10;;;;;;5033461;28;20021;-68
2021/03/21 13:22:10;;;;;;;10.18;6.47;;;5.90;66.30;;;;;;5036070;28;20027;-68
2021/03/21 13:24:36;;;;;;;9.60;6.40;;;5.90;66.60;;;;;;5035393;28;20369;-68
2021/03/21 13:27:03;;;;;;;8.68;5.75;;;6.00;66.50;;;;;;5035563;28;20021;-68
2021/03/21 13:29:30;;;;;;;8.00;6.07;;;6.00;66.70;;;;;;5036135;28;20029;-68
2021/03/21 13:31:56;;;;;;;7.68;5.68;;;6.00;66.70;;;;;;5035873;28;20368;-68
2021/03/21 13:34:27;;;;;;;8.88;6.18;;;6.00;66.70;;;;;;5035066;28;20021;-68
2021/03/21 13:36:53;;;;;;;10.18;6.07;;;5.90;66.90;;;;;;5035795;28;20031;-67
2021/03/21 13:39:19;;;;;;;8.10;5.70;;;6.00;66.80;;;;;;5035834;28;20384;-68
2021/03/21 13:41:44;;;;;;;8.93;5.78;;;6.00;66.80;;;;;;5035935;28;20043;-67
2021/03/21 13:44:10;;;;;;;9.00;5.75;;;6.10;66.90;;;;;;5034766;28;20448;-67
2021/03/21 13:46:36;;;;;;;7.70;5.53;;;6.20;66.80;;;;;;5035563;28;20390;-67
2021/03/21 13:49:03;;;;;;;9.23;6.00;;;6.20;66.70;;;;;;5031775;28;20033;-67
2021/03/21 13:51:29;;;;;;;7.45;5.65;;;6.30;67.00;;;;;;5032622;28;20032;-67